Flight Track Log - Related Links

Times and Time Zones

All times are in EDT time to prevent confusion due to time zone crossing. See the TCF3519 flight status page for this flight to view local times or setup timezone preferences in your user account.

Time Position Orientation Groundspeed Altitude Reporting Facility
EDT Latitude Longitude Course Direction KTS MPH feet Rate Location/Type
Thu 07:03:38 PM 41.4219 -81.8356 270° West 152 175 1,700  Level Cleveland Center
Thu 07:03:56 PM 41.4367 -81.8353 North 177 204 2,200 1,292 Climbing Cleveland Center
Thu 07:04:43 PM 41.4767 -81.8506 344° North 234 269 3,100 1,982 Climbing Cleveland Center
Thu 07:05:45 PM 41.5278 -81.9081 320° Northwest 264 304 5,800 3,000 Climbing Cleveland Center
Thu 07:06:00 PM 41.3427 -82.2636 263° West  Level FlightAware Approximate
Thu 07:06:47 PM 41.4981 -82.0000 247° West 269 310 9,300  Level Cleveland Center
Thu 07:07:00 PM 41.3327 -82.3692 252° West  Level FlightAware Approximate
Thu 07:07:49 PM 41.4569 -82.1117 244° Southwest 285 328 12,300  Level Cleveland Center
Thu 07:08:00 PM 41.3075 -82.4702 252° West  Level FlightAware Approximate
Thu 07:08:51 PM 41.4189 -82.2164 244° Southwest 306 352 15,000  Level Cleveland Center
Thu 07:09:00 PM 41.3000 -82.5751 270° West  Level FlightAware Approximate
Thu 07:09:53 PM 41.3789 -82.3236 244° Southwest 317 365 17,800  Level Cleveland Center
Thu 07:10:55 PM 41.3397 -82.4331 245° Southwest 323 372 19,600 1,742 Climbing Cleveland Center
Thu 07:11:57 PM 41.3044 -82.5506 248° West 338 389 21,400 1,854 Climbing Cleveland Center
Thu 07:12:58 PM 41.2878 -82.6792 260° West 349 402 23,400 1,902 Climbing Cleveland Center
Thu 07:14:00 PM 41.2697 -82.8067 259° West 349 402 25,300 1,790 Climbing Cleveland Center
Thu 07:15:02 PM 41.2503 -82.9542 260° West 348 400 27,100 1,403 Climbing Cleveland Center
Thu 07:16:04 PM 41.2753 -83.0811 285° West 366 421 28,200 1,210 Climbing Cleveland Center
Thu 07:17:06 PM 41.3164 -83.2125 293° West 367 422 29,600 1,161 Climbing Cleveland Center
Thu 07:18:08 PM 41.3586 -83.3400 294° West 373 429 30,600 968 Climbing Cleveland Center
Thu 07:19:10 PM 41.3994 -83.4725 292° West 382 440 31,600 683 Climbing Cleveland Center
Thu 07:20:11 PM 41.4408 -83.6053 293° West 383 441 32,000 195 Climbing Cleveland Center
Thu 07:21:13 PM 41.4381 -83.7442 269° West 375 432 32,000  Level Cleveland Center
Thu 07:22:15 PM 41.4272 -83.8819 264° West 375 432 32,000  Level Cleveland Center
Thu 07:23:17 PM 41.4181 -84.0200 265° West 375 432 32,000  Level Cleveland Center
Thu 07:24:19 PM 41.4056 -84.1831 264° West 371 427 32,000  Level Cleveland Center
Thu 07:25:21 PM 41.3967 -84.2969 264° West 369 425 32,000  Level Cleveland Center
Thu 07:26:22 PM 41.3847 -84.4583 264° West 368 423 32,000  Level Cleveland Center
Thu 07:27:24 PM 41.3775 -84.5942 266° West 368 423 32,000  Level Cleveland Center
Thu 07:28:26 PM 41.3692 -84.7344 266° West 374 430 32,000 -242 Level Cleveland Center
Thu 07:29:28 PM 41.3608 -84.8733 265° West 375 432 31,500 -677 Descending Cleveland Center
Thu 07:30:30 PM 41.3525 -85.0106 265° West 375 432 30,600 -726 Descending Cleveland Center
Thu 07:31:32 PM 41.3442 -85.1458 265° West 368 423 30,000 -290 Descending Cleveland Center
Thu 07:32:34 PM 41.3350 -85.2806 265° West 367 422 30,000  Level Cleveland Center
Thu 07:33:36 PM 41.3258 -85.4161 265° West 367 422 30,000 -146 Level Cleveland Center
Thu 07:34:37 PM 41.3153 -85.5781 265° West 366 421 29,700 -1,122 Descending Cleveland Center
Thu 07:35:39 PM 41.3064 -85.7142 265° West 366 421 27,700 -1,935 Descending Cleveland Center
Thu 07:36:41 PM 41.2964 -85.8536 265° West 372 428 25,700 -1,306 Descending Cleveland Center
Thu 07:37:43 PM 41.2869 -85.9942 265° West 377 434 25,000 -339 Descending Cleveland Center
Thu 07:38:45 PM 41.3014 -86.1336 278° West 384 442 25,000  Level Cleveland Center
Thu 07:39:47 PM 41.3256 -86.2717 283° West 383 441 25,000 -632 Level Cleveland Center
Thu 07:41:17 PM 41.3644 -86.4906 283° West 382 440 23,400 -1,421 Descending Chicago Center
Thu 07:42:19 PM 41.3878 -86.6275 283° West 382 440 21,400 -2,032 Descending Chicago Center
Thu 07:43:21 PM 41.4269 -86.7742 290° West 376 433 19,200 -2,016 Descending Chicago Center
Thu 07:44:24 PM 41.4689 -86.8969 295° West 361 415 17,200 -1,824 Descending Chicago Center
Thu 07:45:26 PM 41.5072 -87.0153 293° West 352 405 15,400 -1,790 Descending Chicago Center
Thu 07:46:28 PM 41.5475 -87.1372 294° West 337 388 13,500 -1,645 Descending Chicago Center
Thu 07:47:30 PM 41.5881 -87.2517 295° West 341 392 12,000 -774 Descending Chicago Center
Thu 07:48:32 PM 41.6522 -87.3675 307° West 363 418 11,900 -484 Descending Chicago Center
Thu 07:49:34 PM 41.7089 -87.4739 306° West 356 410 11,000 -435 Descending Chicago Center
Thu 07:50:36 PM 41.7700 -87.5889 305° West 356 410 11,000 -145 Level Chicago Center
Thu 07:51:38 PM 41.8269 -87.6953 306° West 356 410 10,700 -784 Descending Chicago Center
Thu 07:53:09 PM 41.8833 -87.8333 299° West 275 316 9,000 -1,248 Descending Chicago TRACON
Thu 07:53:43 PM 41.8833 -87.8911 270° West 271 312 8,100 -1,250 Descending Chicago Center
Thu 07:54:45 PM 41.8842 -87.9983 271° West 268 308 7,000 -1,016 Descending Chicago Center
Thu 07:55:47 PM 41.8842 -88.0986 270° West 270 311 6,000 -968 Descending Chicago Center
Thu 07:56:49 PM 41.8831 -88.2028 269° West 266 306 5,000 -484 Descending Chicago Center
Thu 07:57:51 PM 41.8836 -88.2992 270° West 262 302 5,000  Level Chicago Center
Thu 07:58:53 PM 41.8872 -88.4042 273° West 262 302 5,000  Level Chicago Center
Thu 07:59:56 PM 41.9192 -88.4661 305° West 235 270 5,000  Level Chicago Center
Thu 08:00:57 PM 41.9611 -88.3992 50° Northeast 246 283 5,000  Level Chicago Center
Thu 08:01:59 PM 41.9642 -88.3206 87° East 214 246 5,000  Level Chicago Center
Thu 08:03:01 PM 41.9633 -88.2469 91° East 202 232 5,000 -387 Level Chicago Center
Thu 08:04:03 PM 41.9642 -88.1678 89° East 200 230 4,200 -864 Descending Chicago Center
Thu 08:05:06 PM 41.9644 -88.1000 90° East 188 216 3,200 -960 Descending Chicago Center
Thu 08:06:08 PM 41.9644 -88.0322 90° East 172 198 2,200 -871 Descending Chicago Center
Thu 08:07:10 PM 41.9650 -87.9794 89° East 144 166 1,400 -677 Descending Chicago Center
Thu 08:08:12 PM 41.9639 -87.9389 92° East 134 154 800 -581 Descending Chicago Center

Login

Don't have an account? Register now (free) for customized features, flight alerts, and more!